Terminal Aerodrome Forecast
Issued by NWS Paducah, KY

Home | Current Version | Previous Version | Text Only | Print | Product List | Glossary On
Versions: 1 2 3 4 5 6 7 8 9 10 11 12 13
000
FTUS43 KPAH 241720
TAFPAH
TAF
KPAH 241720Z 2418/2518 33008KT P6SM VCSH BKN050 BKN110
     FM250100 32006KT P6SM FEW250
     FM250700 31004KT P6SM SKC
      TEMPO 2509/2513 6SM -DZ BR BKN009
     FM251400 28007KT P6SM VCSH BKN014=

USA.gov is the U.S. government's official web portal to all federal, state and local government web resources and services.